Time;durP1;ratioP1;P1;durP2;ratioP2;P2;SDS_P1;SDS_P2;PMS_P1;PMS_P2;Temp;Humidity;BMP_temperature;BMP_pressure;BME280_temperature;BME280_humidity;BME280_pressure;Samples;Min_cycle;Max_cycle;Signal;HPM_P1;HPM_P2
2021/05/21 00:01:37;;;;;;;1.30;1.20;;;14.20;61.60;;;;;;5085378;28;20515;-74
2021/05/21 00:04:04;;;;;;;1.98;1.13;;;14.20;61.00;;;;;;5081348;28;20071;-73
2021/05/21 00:06:32;;;;;;;1.40;1.02;;;14.20;60.80;;;;;;5085741;28;20635;-73
2021/05/21 00:08:59;;;;;;;1.40;1.10;;;14.20;60.80;;;;;;5096560;27;20087;-74
2021/05/21 00:11:26;;;;;;;2.17;1.20;;;14.10;61.00;;;;;;5086397;28;20055;-75
2021/05/21 00:13:53;;;;;;;2.63;1.17;;;14.10;61.10;;;;;;5085078;28;20082;-74
2021/05/21 00:16:20;;;;;;;3.47;1.10;;;14.20;61.30;;;;;;5083533;28;20112;-75
2021/05/21 00:18:47;;;;;;;2.33;1.10;;;14.20;61.10;;;;;;5084959;28;20131;-74
2021/05/21 00:21:15;;;;;;;1.20;1.10;;;14.30;61.10;;;;;;5086093;28;20070;-74
2021/05/21 00:23:42;;;;;;;2.55;1.20;;;14.40;61.10;;;;;;5084489;28;20060;-75
2021/05/21 00:26:09;;;;;;;4.78;1.10;;;14.30;61.00;;;;;;5088983;28;20591;-74
2021/05/21 00:28:36;;;;;;;3.35;1.10;;;14.30;61.40;;;;;;5085398;28;20067;-73
2021/05/21 00:31:02;;;;;;;1.98;1.15;;;14.20;61.80;;;;;;5085536;28;20138;-73
2021/05/21 00:33:29;;;;;;;4.15;1.23;;;14.20;62.10;;;;;;5086406;28;20067;-74
2021/05/21 00:35:56;;;;;;;1.85;1.17;;;14.20;62.30;;;;;;5084522;28;20051;-74
2021/05/21 00:38:23;;;;;;;2.40;1.25;;;14.10;62.30;;;;;;5082417;28;20079;-74
2021/05/21 00:40:50;;;;;;;7.07;1.35;;;14.10;62.70;;;;;;5087190;28;20156;-73
2021/05/21 00:43:17;;;;;;;3.45;1.20;;;14.20;62.70;;;;;;5084053;28;20132;-74
2021/05/21 00:45:44;;;;;;;2.92;1.20;;;14.10;63.40;;;;;;5087511;28;20132;-74
2021/05/21 00:48:11;;;;;;;4.47;1.45;;;14.20;63.70;;;;;;5090148;28;20154;-74
2021/05/21 00:50:38;;;;;;;1.80;1.35;;;14.10;63.20;;;;;;5092893;28;20064;-73
2021/05/21 00:53:05;;;;;;;2.05;1.27;;;14.20;63.40;;;;;;5090892;28;20064;-74
2021/05/21 00:55:32;;;;;;;3.40;1.20;;;14.10;63.70;;;;;;5085217;28;20826;-73
2021/05/21 00:58:01;;;;;;;4.10;1.48;;;14.20;63.70;;;;;;5090250;28;20059;-73
2021/05/21 01:00:28;;;;;;;4.25;1.27;;;14.20;63.90;;;;;;5090434;28;20080;-73
2021/05/21 01:02:55;;;;;;;4.95;1.50;;;14.20;63.40;;;;;;5086382;28;20086;-74
2021/05/21 01:05:22;;;;;;;2.08;1.52;;;14.20;63.50;;;;;;5089519;28;20071;-74
2021/05/21 01:07:49;;;;;;;1.90;1.25;;;14.10;63.70;;;;;;5089886;28;20069;-74
2021/05/21 01:10:16;;;;;;;2.53;1.23;;;14.10;64.30;;;;;;5089572;28;20055;-74
2021/05/21 01:12:43;;;;;;;1.83;1.30;;;14.10;64.10;;;;;;5088878;28;20529;-74
2021/05/21 01:15:12;;;;;;;2.10;1.13;;;14.10;64.40;;;;;;5089658;28;20075;-73
2021/05/21 01:17:39;;;;;;;4.25;1.45;;;14.10;64.40;;;;;;5087598;28;20126;-73
2021/05/21 01:20:07;;;;;;;3.40;1.40;;;14.00;64.70;;;;;;5090823;28;20048;-73
2021/05/21 01:22:34;;;;;;;3.20;1.42;;;14.10;64.40;;;;;;5086021;28;20545;-73
2021/05/21 01:25:05;;;;;;;3.38;1.98;;;14.10;64.30;;;;;;5089557;28;20483;-74
2021/05/21 01:27:32;;;;;;;4.10;1.40;;;14.20;64.40;;;;;;5088175;28;20052;-74
2021/05/21 01:29:59;;;;;;;3.05;1.30;;;14.20;64.10;;;;;;5089323;28;20056;-73
2021/05/21 01:32:26;;;;;;;1.27;1.17;;;14.20;64.10;;;;;;5089235;28;20083;-74
2021/05/21 01:34:53;;;;;;;3.50;1.40;;;14.10;64.20;;;;;;5090043;28;20051;-74
2021/05/21 01:37:21;;;;;;;5.60;1.45;;;14.00;64.50;;;;;;5088123;28;20494;-74
2021/05/21 01:39:50;;;;;;;1.67;1.27;;;14.10;64.40;;;;;;5091820;28;20538;-74
2021/05/21 01:42:18;;;;;;;1.70;1.30;;;14.10;64.70;;;;;;5087594;28;20056;-74
2021/05/21 01:44:47;;;;;;;1.90;1.38;;;14.10;64.50;;;;;;5083382;28;20098;-74
2021/05/21 01:47:13;;;;;;;2.22;1.40;;;14.10;64.60;;;;;;5082381;28;20044;-74
2021/05/21 01:49:41;;;;;;;2.72;1.30;;;14.20;64.60;;;;;;5089703;28;20101;-74
2021/05/21 01:52:08;;;;;;;1.88;1.30;;;14.10;64.50;;;;;;5077653;28;20052;-74
2021/05/21 01:54:36;;;;;;;2.58;1.30;;;14.10;64.50;;;;;;5092453;28;20125;-74
2021/05/21 01:57:04;;;;;;;2.05;1.20;;;14.10;64.30;;;;;;5086485;28;20216;-73
2021/05/21 01:59:31;;;;;;;1.65;1.10;;;14.10;64.30;;;;;;5082865;28;20488;-74
2021/05/21 02:01:58;;;;;;;1.52;1.20;;;14.10;64.90;;;;;;5088050;28;20093;-73
2021/05/21 02:04:39;;;;;;;1.55;1.20;;;14.10;64.30;;;;;;5085099;28;20048;-73
2021/05/21 02:07:13;;;;;;;1.92;1.00;;;14.20;64.30;;;;;;5075360;28;20123;-74
2021/05/21 02:10:02;;;;;;;1.73;1.20;;;14.20;64.30;;;;;;5083338;28;20052;-73
2021/05/21 02:12:31;;;;;;;2.47;1.45;;;14.20;64.10;;;;;;5085464;28;20052;-73
2021/05/21 02:15:00;;;;;;;3.30;1.30;;;14.10;64.00;;;;;;5075638;28;20109;-74
2021/05/21 02:17:27;;;;;;;2.97;1.40;;;14.20;64.10;;;;;;5088539;28;20105;-74
2021/05/21 02:20:02;;;;;;;2.63;1.30;;;14.10;64.80;;;;;;5086113;28;20052;-74
2021/05/21 02:22:31;;;;;;;1.63;1.10;;;14.10;64.30;;;;;;5083090;28;20048;-74
2021/05/21 02:25:00;;;;;;;4.20;1.30;;;14.20;64.10;;;;;;5080921;28;20159;-74
2021/05/21 02:27:27;;;;;;;2.22;1.13;;;14.20;64.00;;;;;;5078643;28;20453;-74
2021/05/21 02:29:55;;;;;;;7.22;1.27;;;14.10;63.80;;;;;;5081741;28;20368;-74
2021/05/21 02:32:23;;;;;;;1.70;1.02;;;14.10;64.20;;;;;;5082073;28;20494;-73
2021/05/21 02:34:51;;;;;;;2.50;1.38;;;14.10;64.10;;;;;;5078863;28;20049;-73
2021/05/21 02:37:18;;;;;;;3.10;1.08;;;14.10;64.10;;;;;;5084976;28;20106;-72
2021/05/21 02:39:45;;;;;;;2.05;1.30;;;14.20;64.10;;;;;;5089555;28;20043;-73
2021/05/21 02:42:12;;;;;;;8.77;1.63;;;14.10;64.00;;;;;;5084625;28;20515;-72
2021/05/21 02:44:39;;;;;;;2.00;1.10;;;14.10;64.00;;;;;;5081221;28;20084;-73
2021/05/21 02:47:06;;;;;;;1.48;1.23;;;14.10;64.00;;;;;;5082595;28;20052;-73
2021/05/21 02:49:34;;;;;;;1.35;1.00;;;14.10;63.70;;;;;;5076955;28;20067;-73
2021/05/21 02:52:01;;;;;;;1.25;1.10;;;14.10;63.80;;;;;;5085923;28;20052;-73
2021/05/21 02:54:28;;;;;;;4.10;1.10;;;14.10;63.90;;;;;;5078222;28;20048;-73
2021/05/21 02:56:55;;;;;;;1.35;1.10;;;14.20;63.50;;;;;;5078641;28;20072;-73
2021/05/21 02:59:22;;;;;;;2.25;1.00;;;14.10;63.30;;;;;;5085918;28;20110;-73
2021/05/21 03:01:49;;;;;;;1.40;1.30;;;14.10;63.50;;;;;;5077873;28;20063;-73
2021/05/21 03:04:15;;;;;;;1.33;1.20;;;14.10;63.30;;;;;;5078835;28;20052;-72
2021/05/21 03:06:44;;;;;;;3.15;1.35;;;14.10;63.80;;;;;;5080371;28;20051;-73
2021/05/21 03:09:11;;;;;;;4.57;1.13;;;14.10;63.60;;;;;;5082501;28;20052;-73
2021/05/21 03:11:37;;;;;;;1.20;0.95;;;14.10;63.50;;;;;;5083554;28;20064;-73
2021/05/21 03:14:04;;;;;;;4.05;1.10;;;14.00;63.40;;;;;;5081167;28;20048;-72
2021/05/21 03:16:31;;;;;;;4.30;1.13;;;13.90;64.00;;;;;;5085791;28;20044;-72
2021/05/21 03:18:58;;;;;;;1.42;1.00;;;13.90;63.80;;;;;;5080877;28;20457;-71
2021/05/21 03:21:25;;;;;;;2.95;1.20;;;14.00;63.80;;;;;;5082945;28;20063;-72
2021/05/21 03:23:52;;;;;;;2.85;1.20;;;14.00;64.20;;;;;;5077669;28;20047;-72
2021/05/21 03:26:19;;;;;;;3.97;1.27;;;13.90;63.90;;;;;;5078528;28;20138;-72
2021/05/21 03:28:46;;;;;;;3.72;1.10;;;13.90;64.10;;;;;;5086464;28;20044;-72
2021/05/21 03:31:12;;;;;;;4.38;1.40;;;13.90;64.60;;;;;;5085840;28;20147;-72
2021/05/21 03:33:39;;;;;;;2.17;1.40;;;13.80;64.50;;;;;;5079404;28;20105;-72
2021/05/21 03:36:06;;;;;;;5.97;1.27;;;13.80;64.90;;;;;;5080669;28;20472;-72
2021/05/21 03:38:33;;;;;;;3.22;1.40;;;13.80;65.10;;;;;;5084576;28;20086;-72
2021/05/21 03:41:00;;;;;;;2.92;1.25;;;13.70;65.10;;;;;;5076646;28;20060;-72
2021/05/21 03:43:27;;;;;;;1.88;1.23;;;13.80;65.60;;;;;;5073983;28;20466;-72
2021/05/21 03:45:54;;;;;;;2.28;1.00;;;13.80;65.20;;;;;;5080947;28;20173;-72
2021/05/21 03:48:20;;;;;;;3.50;1.40;;;13.90;65.20;;;;;;5077995;28;20109;-72
2021/05/21 03:50:47;;;;;;;2.00;1.25;;;13.80;65.30;;;;;;5079965;28;20056;-72
2021/05/21 03:53:16;;;;;;;1.42;1.02;;;13.80;65.30;;;;;;5082693;28;20503;-72
2021/05/21 03:55:42;;;;;;;2.88;1.40;;;13.80;65.00;;;;;;5079181;28;20052;-71
2021/05/21 03:58:09;;;;;;;3.45;1.10;;;13.80;65.50;;;;;;5083783;28;20056;-72
2021/05/21 04:00:37;;;;;;;1.17;0.98;;;13.80;65.40;;;;;;5078912;28;20048;-72
2021/05/21 04:03:07;;;;;;;2.25;1.33;;;13.80;65.10;;;;;;5078427;28;20052;-72
2021/05/21 04:05:35;;;;;;;2.45;1.20;;;13.80;65.10;;;;;;5087016;28;20044;-72
2021/05/21 04:08:02;;;;;;;4.82;1.25;;;13.90;65.30;;;;;;5080208;28;20040;-72
2021/05/21 04:10:29;;;;;;;2.47;1.20;;;13.80;65.10;;;;;;5078832;28;20479;-72
2021/05/21 04:12:56;;;;;;;2.55;1.20;;;13.80;65.10;;;;;;5082486;28;20395;-72
2021/05/21 04:15:23;;;;;;;4.75;1.15;;;13.80;65.30;;;;;;5080508;28;20092;-72
2021/05/21 04:17:50;;;;;;;2.67;1.15;;;13.90;65.50;;;;;;5078952;28;20157;-72
2021/05/21 04:20:17;;;;;;;2.30;1.08;;;13.90;65.10;;;;;;5078505;28;20053;-72
2021/05/21 04:22:43;;;;;;;2.60;1.33;;;13.90;65.20;;;;;;5071419;28;20125;-72
2021/05/21 04:25:11;;;;;;;6.43;1.50;;;13.90;65.40;;;;;;5079294;28;20072;-72
2021/05/21 04:27:38;;;;;;;2.20;1.20;;;14.00;65.10;;;;;;5081854;28;20075;-72
2021/05/21 04:30:06;;;;;;;2.83;1.38;;;13.80;65.30;;;;;;5075541;28;20073;-73
2021/05/21 04:32:35;;;;;;;2.10;1.27;;;13.90;65.40;;;;;;5080133;28;20404;-73
2021/05/21 04:35:02;;;;;;;1.60;1.10;;;14.00;65.40;;;;;;5075894;28;20437;-73
2021/05/21 04:37:29;;;;;;;3.28;1.15;;;13.90;65.00;;;;;;5073009;28;20495;-73
2021/05/21 04:39:55;;;;;;;1.90;1.10;;;14.00;65.20;;;;;;5080128;28;20073;-72
2021/05/21 04:42:41;;;;;;;2.30;1.02;;;14.00;64.80;;;;;;5076578;28;20052;-72
2021/05/21 04:45:09;;;;;;;1.25;1.00;;;14.10;64.80;;;;;;5078689;28;20140;-72
2021/05/21 04:47:36;;;;;;;2.17;1.05;;;14.20;64.60;;;;;;5078392;28;20127;-72
2021/05/21 04:50:04;;;;;;;3.65;1.13;;;14.10;64.50;;;;;;5073048;28;20127;-75
2021/05/21 04:52:31;;;;;;;1.63;1.10;;;14.10;64.60;;;;;;5082641;28;20069;-71
2021/05/21 04:54:57;;;;;;;1.98;1.20;;;14.10;64.80;;;;;;5083269;28;20099;-72
2021/05/21 04:57:24;;;;;;;3.10;1.30;;;14.10;64.80;;;;;;5070142;28;20056;-73
2021/05/21 04:59:51;;;;;;;3.58;1.10;;;14.20;65.20;;;;;;5080551;28;20548;-73
2021/05/21 05:02:18;;;;;;;1.65;1.00;;;14.20;64.50;;;;;;5075378;28;20087;-72
2021/05/21 05:04:45;;;;;;;3.50;1.20;;;14.20;64.10;;;;;;5074875;28;20459;-73
2021/05/21 05:07:12;;;;;;;1.80;1.15;;;14.20;64.10;;;;;;5080147;28;20127;-72
2021/05/21 05:09:38;;;;;;;4.93;1.20;;;14.30;63.80;;;;;;5075778;28;20045;-73
2021/05/21 05:12:06;;;;;;;4.85;1.05;;;14.20;63.90;;;;;;5079171;28;20110;-72
2021/05/21 05:14:33;;;;;;;5.82;1.27;;;14.30;63.90;;;;;;5081789;28;20113;-72
2021/05/21 05:17:01;;;;;;;2.75;1.35;;;14.20;63.80;;;;;;5072846;28;20076;-72
2021/05/21 05:19:28;;;;;;;1.77;1.10;;;14.20;63.80;;;;;;5080353;28;20083;-72
2021/05/21 05:21:57;;;;;;;2.15;1.08;;;14.30;63.70;;;;;;5074430;28;20583;-72
2021/05/21 05:24:25;;;;;;;1.10;1.00;;;14.30;63.70;;;;;;5087775;28;20048;-72
2021/05/21 05:26:52;;;;;;;5.47;1.05;;;14.40;64.20;;;;;;5080191;28;20121;-72
2021/05/21 05:29:19;;;;;;;4.55;0.95;;;14.40;63.30;;;;;;5072460;28;20083;-72
2021/05/21 05:31:46;;;;;;;2.72;1.10;;;14.30;63.40;;;;;;5075698;28;20076;-72
2021/05/21 05:34:14;;;;;;;2.15;1.08;;;14.30;63.40;;;;;;5080776;28;20578;-72
2021/05/21 05:36:42;;;;;;;1.85;1.00;;;14.30;63.80;;;;;;5094629;28;20052;-75
2021/05/21 05:39:10;;;;;;;4.28;1.10;;;14.30;63.70;;;;;;5086061;28;20068;-74
2021/05/21 05:41:37;;;;;;;2.83;1.20;;;14.40;63.80;;;;;;5081424;28;20048;-74
2021/05/21 05:44:04;;;;;;;1.00;0.90;;;14.50;63.30;;;;;;5086489;28;20082;-74
2021/05/21 05:46:31;;;;;;;2.45;1.02;;;14.40;63.10;;;;;;5100458;28;20106;-73
2021/05/21 05:48:58;;;;;;;3.35;1.10;;;14.30;63.50;;;;;;5074608;28;20391;-72
2021/05/21 05:51:25;;;;;;;6.18;1.20;;;14.40;63.60;;;;;;5085529;28;20475;-73
2021/05/21 05:53:52;;;;;;;4.93;1.30;;;14.50;63.10;;;;;;5080966;28;20078;-75
2021/05/21 05:56:19;;;;;;;2.90;1.20;;;14.60;63.00;;;;;;5081958;28;20052;-73
2021/05/21 05:58:46;;;;;;;3.72;1.25;;;14.60;63.30;;;;;;5081706;28;20140;-73
2021/05/21 06:01:12;;;;;;;3.30;1.20;;;14.60;63.30;;;;;;5084151;28;20138;-72
2021/05/21 06:03:40;;;;;;;3.30;1.35;;;14.60;63.00;;;;;;5081601;28;20044;-72
2021/05/21 06:06:06;;;;;;;3.83;1.58;;;14.70;62.90;;;;;;5087306;28;20556;-72
2021/05/21 06:08:53;;;;;;;7.80;1.13;;;14.60;62.70;;;;;;5082959;28;20048;-74
2021/05/21 06:11:20;;;;;;;3.20;1.00;;;14.60;63.00;;;;;;5073175;28;20431;-73
2021/05/21 06:13:47;;;;;;;5.53;1.05;;;14.60;63.30;;;;;;5080777;28;20110;-72
2021/05/21 06:16:14;;;;;;;3.50;0.90;;;14.60;63.10;;;;;;5077812;28;20048;-73
2021/05/21 06:18:42;;;;;;;2.88;1.20;;;14.60;63.20;;;;;;5083578;28;20049;-72
2021/05/21 06:21:09;;;;;;;4.38;1.38;;;14.60;62.90;;;;;;5079197;28;20055;-72
2021/05/21 06:23:38;;;;;;;1.58;0.80;;;14.60;63.20;;;;;;5077978;28;20054;-73
2021/05/21 06:26:16;;;;;;;1.38;0.98;;;14.60;63.40;;;;;;5081055;28;20547;-72
2021/05/21 06:28:44;;;;;;;2.85;0.95;;;14.60;62.70;;;;;;5081124;28;20048;-73
2021/05/21 06:31:11;;;;;;;5.78;1.17;;;14.60;62.90;;;;;;5076675;28;20502;-72
2021/05/21 06:33:38;;;;;;;4.65;1.10;;;14.60;63.10;;;;;;5082100;28;20060;-73
2021/05/21 06:36:05;;;;;;;1.38;1.00;;;14.70;63.30;;;;;;5079932;28;20048;-73
2021/05/21 06:38:32;;;;;;;1.92;1.13;;;14.70;62.80;;;;;;5075594;28;20086;-73
2021/05/21 06:40:59;;;;;;;4.15;1.00;;;14.60;62.50;;;;;;5079769;28;20124;-73
2021/05/21 06:43:30;;;;;;;3.35;1.20;;;14.60;63.00;;;;;;5079315;28;20040;-74
2021/05/21 06:45:57;;;;;;;2.45;1.20;;;14.70;63.20;;;;;;5076998;28;20531;-74
2021/05/21 06:48:33;;;;;;;4.80;1.20;;;14.60;63.00;;;;;;5084148;28;20471;-74
2021/05/21 06:51:03;;;;;;;3.65;1.17;;;14.70;63.30;;;;;;5078892;28;20052;-75
2021/05/21 06:53:30;;;;;;;2.83;1.08;;;14.70;62.80;;;;;;5081705;28;20072;-72
2021/05/21 06:55:58;;;;;;;4.05;1.30;;;14.70;62.90;;;;;;5082729;28;20105;-74
2021/05/21 06:58:26;;;;;;;3.40;1.00;;;14.70;63.00;;;;;;5083140;28;20048;-73
2021/05/21 07:00:56;;;;;;;1.30;0.90;;;14.60;62.90;;;;;;5078491;28;20036;-74
2021/05/21 07:03:28;;;;;;;3.08;1.10;;;14.70;63.10;;;;;;5082869;28;20048;-73
2021/05/21 07:05:56;;;;;;;1.63;1.10;;;14.60;62.90;;;;;;5079128;28;20064;-72
2021/05/21 07:08:23;;;;;;;1.83;0.95;;;14.70;63.30;;;;;;5086278;28;20044;-73
2021/05/21 07:10:53;;;;;;;2.33;1.23;;;14.80;63.10;;;;;;5081948;28;20139;-73
2021/05/21 07:13:21;;;;;;;4.63;1.17;;;14.90;63.00;;;;;;5073410;28;20514;-73
2021/05/21 07:15:48;;;;;;;1.65;1.10;;;15.00;62.70;;;;;;5081327;28;20048;-73
2021/05/21 07:18:15;;;;;;;2.45;1.00;;;15.00;62.70;;;;;;5076451;28;20052;-73
2021/05/21 07:20:45;;;;;;;3.70;1.20;;;15.10;62.70;;;;;;5076934;28;20406;-74
2021/05/21 07:23:12;;;;;;;1.88;1.10;;;15.00;62.50;;;;;;5082054;28;20138;-73
2021/05/21 07:25:39;;;;;;;2.20;1.25;;;15.00;62.70;;;;;;5079654;28;20068;-73
2021/05/21 07:28:06;;;;;;;2.17;0.98;;;15.00;62.80;;;;;;5076452;28;20090;-80
2021/05/21 07:30:33;;;;;;;1.67;0.90;;;14.90;62.90;;;;;;5080478;28;20040;-80
2021/05/21 07:33:00;;;;;;;2.33;1.23;;;15.00;62.90;;;;;;5078493;28;20075;-79
2021/05/21 07:35:29;;;;;;;2.47;1.00;;;15.10;62.80;;;;;;5084780;28;20036;-74
2021/05/21 07:37:56;;;;;;;3.13;1.27;;;15.00;62.50;;;;;;5077748;28;20135;-74
2021/05/21 07:40:24;;;;;;;2.38;1.05;;;15.00;62.60;;;;;;5077046;28;20479;-74
2021/05/21 07:42:52;;;;;;;3.25;1.23;;;15.10;62.20;;;;;;5078457;28;20068;-74
2021/05/21 07:45:20;;;;;;;4.30;1.33;;;15.10;62.30;;;;;;5074737;28;20080;-74
2021/05/21 07:47:47;;;;;;;4.05;1.10;;;15.10;62.30;;;;;;5090655;28;20048;-74
2021/05/21 07:50:14;;;;;;;4.95;1.63;;;15.20;62.80;;;;;;5081377;28;20044;-74
2021/05/21 07:52:42;;;;;;;3.28;1.10;;;15.30;62.40;;;;;;5073138;28;20126;-72
2021/05/21 07:55:09;;;;;;;3.78;1.05;;;15.40;61.80;;;;;;5077296;28;20060;-73
2021/05/21 07:57:36;;;;;;;1.58;1.08;;;15.40;61.00;;;;;;5074251;28;20051;-73
2021/05/21 08:00:05;;;;;;;3.67;1.50;;;15.50;60.40;;;;;;5085548;28;20105;-74
2021/05/21 08:02:32;;;;;;;2.03;1.05;;;15.60;60.00;;;;;;5079995;28;20044;-73
2021/05/21 08:04:59;;;;;;;4.47;1.15;;;15.60;59.50;;;;;;5084063;28;20479;-73
2021/05/21 08:07:26;;;;;;;8.45;1.02;;;15.60;59.60;;;;;;5073563;28;20145;-73
2021/05/21 08:09:55;;;;;;;3.53;0.80;;;15.70;58.80;;;;;;5083690;28;20040;-73
2021/05/21 08:12:23;;;;;;;4.20;0.80;;;15.70;58.20;;;;;;5070655;28;20110;-74
2021/05/21 08:14:50;;;;;;;2.85;0.80;;;15.80;58.20;;;;;;5084177;28;20053;-74
2021/05/21 08:17:17;;;;;;;1.95;1.00;;;15.70;57.70;;;;;;5078110;28;20476;-73
2021/05/21 08:19:44;;;;;;;2.72;1.00;;;15.80;57.60;;;;;;5083494;28;20041;-74
2021/05/21 08:22:13;;;;;;;5.03;1.00;;;15.80;57.40;;;;;;5076610;28;20107;-74
2021/05/21 08:24:40;;;;;;;6.35;1.10;;;15.80;57.60;;;;;;5072462;28;20056;-74
2021/05/21 08:27:07;;;;;;;6.03;1.23;;;15.80;56.70;;;;;;5073727;28;20198;-74
2021/05/21 08:29:34;;;;;;;2.53;0.90;;;15.90;56.60;;;;;;5077587;28;20040;-74
2021/05/21 08:32:02;;;;;;;8.18;0.82;;;16.00;56.10;;;;;;5077414;28;20056;-74
2021/05/21 08:34:30;;;;;;;1.20;0.70;;;16.10;56.00;;;;;;5072988;28;20122;-75
2021/05/21 08:36:56;;;;;;;2.70;0.77;;;16.10;56.00;;;;;;5077054;28;20067;-74
2021/05/21 08:39:23;;;;;;;0.90;0.50;;;16.20;55.50;;;;;;5074956;28;20083;-75
2021/05/21 08:41:53;;;;;;;3.05;0.65;;;16.20;55.40;;;;;;5079590;28;20115;-75
2021/05/21 08:44:21;;;;;;;1.75;0.80;;;16.20;55.60;;;;;;5081023;28;20735;-74
2021/05/21 08:46:48;;;;;;;1.92;0.82;;;16.20;55.70;;;;;;5079214;28;20554;-74
2021/05/21 08:49:16;;;;;;;2.88;0.95;;;16.20;55.90;;;;;;5076599;28;20074;-74
2021/05/21 08:51:44;;;;;;;1.15;1.00;;;16.30;56.10;;;;;;5079593;28;20544;-74
2021/05/21 08:54:32;;;;;;;0.85;0.60;;;16.30;56.10;;;;;;5078616;28;20052;-74
2021/05/21 08:56:59;;;;;;;1.73;1.08;;;16.30;56.00;;;;;;5086945;28;20043;-74
2021/05/21 08:59:25;;;;;;;2.97;0.75;;;16.30;56.30;;;;;;5079089;28;20064;-74
2021/05/21 09:01:55;;;;;;;1.45;0.68;;;16.30;56.20;;;;;;5071991;28;20040;-74
2021/05/21 09:04:23;;;;;;;1.95;0.70;;;16.40;56.30;;;;;;5082581;28;20071;-74
2021/05/21 09:06:49;;;;;;;2.75;0.70;;;16.40;56.00;;;;;;5077495;28;20052;-75
2021/05/21 09:09:16;;;;;;;1.50;0.88;;;16.30;56.10;;;;;;5075945;28;20052;-75
2021/05/21 09:11:45;;;;;;;4.07;0.80;;;16.30;56.50;;;;;;5085536;28;20057;-75
2021/05/21 09:14:18;;;;;;;3.05;0.85;;;16.20;56.20;;;;;;5081591;28;20052;-74
2021/05/21 09:16:47;;;;;;;1.00;0.60;;;16.10;56.60;;;;;;5082620;28;20127;-74
2021/05/21 09:19:21;;;;;;;3.30;1.17;;;16.10;56.80;;;;;;5087250;28;20468;-74
2021/05/21 09:21:56;;;;;;;3.10;0.60;;;16.10;57.30;;;;;;5082770;28;20140;-74
2021/05/21 09:24:27;;;;;;;2.00;0.95;;;16.00;57.30;;;;;;5074991;28;20087;-74
2021/05/21 09:26:56;;;;;;;2.35;1.00;;;16.00;57.60;;;;;;5083524;28;20080;-71
2021/05/21 09:29:45;;;;;;;0.95;0.65;;;16.10;57.80;;;;;;5084430;28;20456;-72
2021/05/21 09:32:29;;;;;;;5.57;0.90;;;16.00;57.40;;;;;;5088952;28;20052;-71
2021/05/21 09:35:02;;;;;;;2.47;1.10;;;16.10;57.50;;;;;;5083383;28;20139;-72
2021/05/21 09:37:30;;;;;;;5.40;0.93;;;16.10;57.50;;;;;;5078758;28;20487;-72
2021/05/21 09:40:04;;;;;;;4.75;0.80;;;16.20;57.20;;;;;;5085006;28;20048;-72
2021/05/21 09:42:54;;;;;;;1.70;0.65;;;16.10;57.00;;;;;;5082582;28;20050;-71
2021/05/21 09:45:31;;;;;;;5.28;0.90;;;16.10;56.90;;;;;;5083358;28;20048;-71
2021/05/21 09:48:18;;;;;;;1.85;0.95;;;16.30;57.10;;;;;;5078990;28;20068;-72
2021/05/21 09:50:47;;;;;;;2.72;0.90;;;16.40;56.90;;;;;;5078665;28;20097;-71
2021/05/21 09:53:22;;;;;;;2.40;0.90;;;16.50;57.00;;;;;;5080984;28;20510;-72
2021/05/21 09:55:57;;;;;;;2.63;0.80;;;16.50;57.00;;;;;;5087858;28;20553;-71
2021/05/21 09:58:44;;;;;;;5.13;1.38;;;16.60;56.90;;;;;;5084685;28;20635;-71
2021/05/21 10:01:21;;;;;;;1.92;0.77;;;16.50;57.20;;;;;;5081112;28;20048;-72
2021/05/21 10:03:47;;;;;;;3.72;0.88;;;16.40;57.20;;;;;;5079773;28;20040;-77
2021/05/21 10:06:16;;;;;;;2.25;0.90;;;16.40;56.90;;;;;;5078863;28;20048;-73
2021/05/21 10:08:46;;;;;;;3.03;0.85;;;16.50;56.80;;;;;;5074144;28;20076;-75
2021/05/21 10:11:14;;;;;;;3.15;0.98;;;16.70;56.50;;;;;;5082520;28;20131;-76
2021/05/21 10:13:44;;;;;;;1.52;0.70;;;16.70;56.60;;;;;;5076899;28;20050;-76
2021/05/21 10:16:12;;;;;;;2.93;1.03;;;16.90;56.30;;;;;;5075316;28;20131;-74
2021/05/21 10:18:43;;;;;;;2.65;0.80;;;16.90;56.00;;;;;;5078897;28;20745;-71
2021/05/21 10:21:11;;;;;;;1.25;0.70;;;17.00;56.20;;;;;;5077303;28;20044;-69
2021/05/21 10:23:52;;;;;;;1.40;0.88;;;16.90;56.00;;;;;;5080827;28;20523;-71
2021/05/21 10:26:37;;;;;;;2.10;0.80;;;17.00;55.50;;;;;;5079692;28;20079;-71
2021/05/21 10:29:20;;;;;;;3.97;1.10;;;17.10;55.50;;;;;;5072911;28;21251;-71
2021/05/21 10:31:51;;;;;;;1.95;0.57;;;17.30;55.50;;;;;;5099792;27;20049;-73
2021/05/21 10:34:22;;;;;;;0.95;0.60;;;17.30;55.00;;;;;;5082811;28;20584;-73
2021/05/21 10:36:49;;;;;;;4.43;0.82;;;17.50;54.40;;;;;;5093918;28;20105;-72
2021/05/21 10:39:21;;;;;;;2.00;0.70;;;17.80;54.30;;;;;;5086386;28;20080;-73
2021/05/21 10:41:57;;;;;;;1.38;0.70;;;17.70;54.20;;;;;;5080339;28;20101;-73
2021/05/21 10:44:26;;;;;;;3.17;0.85;;;17.80;54.20;;;;;;5078565;28;20060;-72
2021/05/21 10:47:15;;;;;;;3.47;0.70;;;17.80;54.00;;;;;;5084014;28;20056;-73
2021/05/21 10:50:02;;;;;;;3.63;0.70;;;17.70;54.40;;;;;;5077302;28;20122;-74
2021/05/21 10:52:57;;;;;;;1.48;0.60;;;17.70;54.50;;;;;;5055906;28;20053;-73
2021/05/21 10:55:44;;;;;;;4.47;0.93;;;17.50;54.30;;;;;;5073517;28;20048;-73
2021/05/21 10:58:18;;;;;;;3.33;0.95;;;17.60;54.60;;;;;;5080230;28;20523;-72
2021/05/21 11:01:11;;;;;;;3.55;0.70;;;17.80;53.80;;;;;;5076035;28;20649;-72
2021/05/21 11:03:57;;;;;;;1.70;0.80;;;18.00;53.80;;;;;;5085058;28;20079;-72
2021/05/21 11:06:25;;;;;;;7.97;1.08;;;18.20;52.50;;;;;;5080590;28;20147;-71
2021/05/21 11:09:05;;;;;;;4.72;0.70;;;18.00;51.90;;;;;;5082888;28;20097;-72
2021/05/21 11:11:46;;;;;;;2.75;0.70;;;18.00;52.10;;;;;;5072806;28;20044;-72
2021/05/21 11:14:25;;;;;;;;;;;17.90;51.80;;;;;;5082839;28;20044;-72
2021/05/21 11:16:59;;;;;;;1.77;0.80;;;17.90;52.40;;;;;;5076435;28;20294;-73
2021/05/21 11:19:28;;;;;;;5.68;1.15;;;17.90;51.20;;;;;;5080345;28;20545;-72
2021/05/21 11:22:13;;;;;;;2.00;0.82;;;18.00;52.00;;;;;;5084574;28;20085;-72
2021/05/21 11:24:42;;;;;;;3.40;0.80;;;18.00;51.70;;;;;;5075659;28;20068;-74
2021/05/21 11:27:11;;;;;;;4.72;1.10;;;18.00;51.60;;;;;;5076885;28;20048;-73
2021/05/21 11:29:48;;;;;;;2.05;0.50;;;18.10;52.10;;;;;;5085753;28;20506;-73
2021/05/21 11:32:17;;;;;;;5.25;0.90;;;17.90;49.80;;;;;;5080416;28;20514;-74
2021/05/21 11:34:44;;;;;;;2.13;0.90;;;18.10;50.70;;;;;;5079603;28;20052;-74
2021/05/21 11:37:23;;;;;;;1.73;0.80;;;18.00;50.60;;;;;;5083639;28;20093;-74
2021/05/21 11:39:53;;;;;;;1.03;0.60;;;18.10;50.50;;;;;;5076575;28;20052;-73
2021/05/21 11:42:25;;;;;;;1.95;0.75;;;18.50;49.50;;;;;;5079648;28;20037;-74
2021/05/21 11:44:55;;;;;;;4.00;1.10;;;18.60;49.20;;;;;;5082765;28;20094;-73
2021/05/21 11:47:35;;;;;;;2.40;0.90;;;19.20;48.90;;;;;;5080404;28;20040;-73
2021/05/21 11:50:05;;;;;;;6.70;1.05;;;19.10;47.80;;;;;;5077244;28;20469;-73
2021/05/21 11:52:33;;;;;;;5.07;1.30;;;18.90;47.40;;;;;;5085672;28;20493;-73
2021/05/21 11:55:00;;;;;;;5.68;0.90;;;18.90;47.50;;;;;;5076823;28;20082;-73
2021/05/21 11:57:27;;;;;;;2.92;1.10;;;18.70;47.90;;;;;;5079123;28;20078;-72
2021/05/21 11:59:56;;;;;;;4.30;0.80;;;18.60;47.90;;;;;;5080643;28;20483;-73
2021/05/21 12:02:23;;;;;;;3.72;1.00;;;18.70;48.10;;;;;;5081279;28;20048;-73
2021/05/21 12:04:50;;;;;;;2.28;0.70;;;18.70;47.90;;;;;;5081388;28;20052;-74
2021/05/21 12:07:23;;;;;;;3.72;1.10;;;18.50;47.60;;;;;;5083583;28;20113;-73
2021/05/21 12:10:02;;;;;;;4.57;1.30;;;18.30;47.90;;;;;;5082199;28;20052;-71
2021/05/21 12:12:31;;;;;;;3.08;1.02;;;18.30;48.10;;;;;;5077803;28;20036;-74
2021/05/21 12:15:18;;;;;;;4.50;1.00;;;18.50;48.80;;;;;;5080007;28;20072;-73
2021/05/21 12:17:50;;;;;;;5.28;0.95;;;18.40;48.60;;;;;;5077059;28;20052;-76
2021/05/21 12:20:20;;;;;;;2.20;0.80;;;18.80;48.00;;;;;;5078548;28;20079;-74
2021/05/21 12:23:15;;;;;;;2.63;0.88;;;18.70;48.30;;;;;;5083424;28;20044;-71
2021/05/21 12:25:42;;;;;;;3.47;1.02;;;18.60;48.90;;;;;;5079333;28;20060;-73
2021/05/21 12:28:09;;;;;;;2.30;0.70;;;18.50;49.20;;;;;;5080534;28;20090;-73
2021/05/21 12:30:37;;;;;;;4.50;0.88;;;18.30;49.60;;;;;;5080647;28;20075;-73
2021/05/21 12:33:06;;;;;;;2.38;1.33;;;18.20;49.90;;;;;;5080721;28;20064;-73
2021/05/21 12:35:38;;;;;;;5.53;1.90;;;18.30;50.10;;;;;;5081652;28;20075;-73
2021/05/21 12:38:08;;;;;;;14.98;6.75;;;18.30;50.20;;;;;;5077076;28;20056;-72
2021/05/21 12:40:51;;;;;;;16.25;6.32;;;18.30;50.60;;;;;;5085666;28;20094;-73
2021/05/21 12:43:18;;;;;;;18.27;6.68;;;18.30;50.00;;;;;;5081859;28;20490;-71
2021/05/21 12:46:07;;;;;;;37.70;14.60;;;18.00;49.20;;;;;;5073632;28;20150;-71
2021/05/21 12:48:41;;;;;;;6.95;2.75;;;18.10;50.20;;;;;;5073892;28;20383;-73
2021/05/21 12:51:15;;;;;;;17.58;6.80;;;18.20;50.20;;;;;;5079404;28;20044;-73
2021/05/21 12:53:43;;;;;;;7.28;3.33;;;18.10;51.20;;;;;;5075318;28;20106;-72
2021/05/21 12:56:26;;;;;;;11.50;4.00;;;18.10;50.30;;;;;;5078908;28;20049;-73
2021/05/21 12:58:53;;;;;;;15.40;4.75;;;18.00;51.40;;;;;;5084679;28;20486;-73
2021/05/21 13:01:20;;;;;;;17.00;5.82;;;18.10;51.00;;;;;;5075451;28;20076;-73